Meteo Giornale » Osservazioni meteo Francia » Grenoble-St Geoirs

ore: 12:30 - Osservazioni Meteo Grenoble-St Geoirs
Lat. 45° 22' N Lon. 5° 20' E Alt. 384 metri s.l.m.

molto_nuvoloso Europe/Paris

17 °C

Molto Nuvoloso

Temp. 24 Ore

8 °C

19 °C

Nord

3.7 Km/h

Dew point 12 °C

Umidità 72 %

Visibilità  10 Km

Il sole sorge alle ore 07:24

Il sole tramonta alle ore 19:38

Data e Ora Cielo e Fenomeni T °C DP °C Um. % Pres. hPa Vis. km Vento km/h
Oggi h: 12:30 molto_nuvoloso Molto Nuvoloso 17 12 72 1026 10 N 3.7
Oggi h: 12:00 coperto Coperto 16 12 77 1026 10 N 3.7
Oggi h: 11:30 coperto Coperto 15 12 82 1026 10 N 3.7
Oggi h: 11:00 coperto Coperto 15 12 82 1026 10 E/NE 7.4
Oggi h: 10:30 molto_nuvoloso Molto Nuvoloso 14 12 87 1026 10 N 3.7
Oggi h: 10:00 molto_nuvoloso Molto Nuvoloso 13 11 87 1026 10 N 1.8
Oggi h: 09:30 nuvoloso Nuvoloso 12 12 100 1026 10 N 3.7
Oggi h: 09:00 nuvoloso Nuvoloso 11 11 100 1026 9 N 3.7
Oggi h: 08:30 nebbia Banco di Nebbia 10 10 100 1026 0.35 N 5.5
Oggi h: 08:00 nebbia Nebbia 8 8 100 1026 0.25 N 3.7
Oggi h: 07:30 nebbia Nebbia 8 8 100 1025 0.4 N 1.8
Oggi h: 07:00 nebbia Nebbia 9 8 93 1025 0.3 N 0
Oggi h: 05:30 nebbia Nebbia 10 10 100 1025 0.3 N 3.7
Oggi h: 05:00 nebbia Banco di Nebbia 9 9 100 1025 0.35 E/SE 7.4
Oggi h: 04:30 foschia Foschia 8 7 93 1026 2 N 3.7
Oggi h: 03:30 sereno Sereno 8 8 100 1026 2 N 5.5
Oggi h: 02:30 sereno Sereno 9 9 100 1027 3 N 5.5
Oggi h: 01:30 sereno Sereno 10 10 100 1027 7 N 3.7
Oggi h: 01:00 nebbia Banco di Nebbia 10 10 100 1026 0.65 N 5.5
Oggi h: 00:30 foschia Foschia 10 10 100 1026 2 N 5.5
Oggi h: 00:00 sereno Sereno 11 10 93 1026 8 N 5.5
Ieri h: 23:30 sereno Sereno 12 11 93 1026 4 N 5.5
Ieri h: 23:00 sereno Sereno 12 11 93 1026 10 N 5.5
Ieri h: 22:30 sereno Sereno 12 11 93 1026 10 E/SE 7.4
Ieri h: 22:00 sereno Sereno 12 11 93 1026 10 SE 7.4
Ieri h: 21:00 sereno Sereno 14 12 87 1026 10 N 3.7
Ieri h: 20:30 sereno Sereno 14 12 87 1026 10 N 11.1
Ieri h: 19:30 sereno Sereno 16 13 82 1025 10 N 13
Ieri h: 19:00 sereno Sereno 17 13 77 1025 10 N/NO 9.3
Ieri h: 16:30 nuvoloso Nuvoloso 19 10 55 1025 10 N/NE 18.5
Ieri h: 16:00 nuvoloso Nuvoloso 19 11 59 1025 10 NE 13
Ieri h: 15:30 molto_nuvoloso Molto Nuvoloso 19 11 59 1025 10 NE 14.8
Ieri h: 15:00 molto_nuvoloso Molto Nuvoloso 19 11 59 1025 10 E/NE 13
Ieri h: 14:30 molto_nuvoloso Molto Nuvoloso 18 12 67 1025 10 N/NE 16.7
Ieri h: 14:00 coperto Coperto 18 11 63 1026 10 NE 18.5